Time;durP1;ratioP1;P1;durP2;ratioP2;P2;SDS_P1;SDS_P2;PMS_P1;PMS_P2;Temp;Humidity;BMP_temperature;BMP_pressure;BME280_temperature;BME280_humidity;BME280_pressure;Samples;Min_cycle;Max_cycle;Signal;HPM_P1;HPM_P2
2022/10/17 00:01:48;;;;;;;;;;;;;;;17.54;100.00;98575.81;5076243;28;19970;-72
2022/10/17 00:04:14;;;;;;;;;;;;;;;17.42;100.00;98582.75;5076575;28;20024;-72
2022/10/17 00:06:40;;;;;;;;;;;;;;;17.45;100.00;98580.28;5079495;28;19925;-72
2022/10/17 00:09:08;;;;;;;;;;;;;;;17.21;100.00;98584.88;5079895;28;19974;-71
2022/10/17 00:11:35;;;;;;;;;;;;;;;17.15;100.00;98584.16;5077715;28;19931;-72
2022/10/17 00:14:02;;;;;;;;;;;;;;;17.05;100.00;98586.19;5076115;28;19964;-72
2022/10/17 00:16:30;;;;;;;;;;;;;;;16.90;100.00;98584.47;5077185;28;19955;-72
2022/10/17 00:18:56;;;;;;;;;;;;;;;16.84;100.00;98582.91;5079812;28;19925;-72
2022/10/17 00:21:23;;;;;;;;;;;;;;;16.83;100.00;98602.09;5079704;28;19930;-72
2022/10/17 00:23:50;;;;;;;;;;;;;;;16.84;100.00;98596.41;5076488;28;19981;-72
2022/10/17 00:26:17;;;;;;;;;;;;;;;16.69;100.00;98589.28;5074607;28;19925;-72
2022/10/17 00:28:46;;;;;;;;;;;;;;;16.53;100.00;98586.97;5077655;28;20007;-72
2022/10/17 00:31:13;;;;;;;;;;;;;;;16.52;100.00;98591.59;5079533;28;19924;-71
2022/10/17 00:33:40;;;;;;;;;;;;;;;16.71;100.00;98603.28;5076708;28;19924;-72
2022/10/17 00:36:08;;;;;;;;;;;;;;;16.89;100.00;98599.06;5075950;28;19925;-72
2022/10/17 00:38:34;;;;;;;;;;;;;;;16.89;100.00;98600.94;5077837;28;19935;-73
2022/10/17 00:41:01;;;;;;;;;;;;;;;16.97;100.00;98605.69;5094773;28;19995;-72
2022/10/17 00:43:28;;;;;;;;;;;;;;;16.85;100.00;98608.81;5078168;28;19984;-72
2022/10/17 00:45:55;;;;;;;;;;;;;;;16.96;100.00;98609.50;5076090;28;19921;-71
2022/10/17 00:48:24;;;;;;;;;;;;;;;17.17;100.00;98605.47;5075577;28;19951;-71
2022/10/17 00:50:51;;;;;;;;;;;;;;;17.25;100.00;98604.81;5067788;28;20023;-71
2022/10/17 00:53:18;;;;;;;;;;;;;;;17.39;100.00;98596.84;5080364;28;19924;-72
2022/10/17 00:55:48;;;;;;;;;;;;;;;17.49;100.00;98604.78;5074441;28;19936;-72
2022/10/17 00:58:14;;;;;;;;;;;;;;;17.57;100.00;98599.59;5075336;28;20001;-72
2022/10/17 01:00:42;;;;;;;;;;;;;;;17.61;100.00;98605.19;5076529;28;19925;-72
2022/10/17 01:03:08;;;;;;;;;;;;;;;17.63;100.00;98603.81;5094391;28;19940;-72
2022/10/17 01:05:36;;;;;;;;;;;;;;;17.67;100.00;98604.81;5075815;28;19920;-72
2022/10/17 01:08:03;;;;;;;;;;;;;;;17.69;100.00;98607.25;5075181;28;19971;-72
2022/10/17 01:10:31;;;;;;;;;;;;;;;17.71;100.00;98605.84;5076330;28;19929;-73
2022/10/17 01:13:07;;;;;;;;;;;;;;;17.71;100.00;98602.34;5078269;28;19978;-71
2022/10/17 01:15:39;;;;;;;;;;;;;;;17.73;100.00;98613.69;5077041;28;19935;-71
2022/10/17 01:18:12;;;;;;;;;;;;;;;17.72;100.00;98610.16;5073888;28;20394;-71
2022/10/17 01:20:52;;;;;;;;;;;;;;;17.71;100.00;98605.03;5077239;28;19931;-71
2022/10/17 01:23:27;;;;;;;;;;;;;;;17.73;100.00;98608.28;5078227;28;19991;-72
2022/10/17 01:25:56;;;;;;;;;;;;;;;17.74;100.00;98612.56;5067703;28;19937;-71
2022/10/17 01:28:32;;;;;;;;;;;;;;;17.71;100.00;98602.34;5075271;28;19963;-71
2022/10/17 01:31:12;;;;;;;;;;;;;;;17.73;100.00;98606.34;5078473;28;19991;-71
2022/10/17 01:33:53;;;;;;;;;;;;;;;17.73;100.00;98602.88;5076453;28;19924;-71
2022/10/17 01:36:25;;;;;;;;;;;;;;;17.71;100.00;98600.44;5074803;28;19996;-72
2022/10/17 01:38:57;;;;;;;;;;;;;;;17.68;100.00;98602.94;5067232;28;19984;-71
2022/10/17 01:41:28;;;;;;;;;;;;;;;17.70;100.00;98600.75;5074879;28;19925;-71
2022/10/17 01:43:59;;;;;;;;;;;;;;;17.66;100.00;98597.84;5078574;28;19995;-71
2022/10/17 01:46:28;;;;;;;;;;;;;;;17.63;100.00;98594.91;5077613;28;19964;-71
2022/10/17 01:48:55;;;;;;;;;;;;;;;17.63;100.00;98594.91;5073224;28;19925;-71
2022/10/17 01:51:23;;;;;;;;;;;;;;;17.63;100.00;98592.22;5074309;28;19935;-72
2022/10/17 01:53:53;;;;;;;;;;;;;;;17.61;100.00;98589.78;5079380;28;19928;-71
2022/10/17 01:56:21;;;;;;;;;;;;;;;17.60;100.00;98593.59;5074258;28;19948;-71
2022/10/17 01:58:50;;;;;;;;;;;;;;;17.59;100.00;98591.97;5066214;28;19991;-71
2022/10/17 02:01:18;;;;;;;;;;;;;;;17.61;100.00;98587.09;5074145;28;20157;-71
2022/10/17 02:03:47;;;;;;;;;;;;;;;17.57;100.00;98587.97;5077286;28;19935;-71
2022/10/17 02:06:13;;;;;;;;;;;;;;;17.55;100.00;98590.13;5077598;28;19966;-71
2022/10/17 02:08:41;;;;;;;;;;;;;;;17.54;100.00;98593.94;5075273;28;19959;-71
2022/10/17 02:11:11;;;;;;;;;;;;;;;17.52;100.00;98580.69;5073379;28;20000;-71
2022/10/17 02:13:45;;;;;;;;;;;;;;;17.53;100.00;98587.72;5075687;28;20234;-71
2022/10/17 02:16:16;;;;;;;;;;;;;;;17.54;100.00;98594.72;5077682;28;19994;-71
2022/10/17 02:18:59;;;;;;;;;;;;;;;17.53;100.00;98595.81;5074411;28;20501;-71
2022/10/17 02:21:31;;;;;;;;;;;;;;;17.52;100.00;98588.00;5074688;28;19960;-71
2022/10/17 02:24:05;;;;;;;;;;;;;;;17.53;100.00;98592.31;5076926;28;20019;-71
2022/10/17 02:26:34;;;;;;;;;;;;;;;17.52;100.00;98586.09;5075530;28;19936;-71
2022/10/17 02:29:04;;;;;;;;;;;;;;;17.49;100.00;98592.09;5077703;28;20191;-72
2022/10/17 02:31:34;;;;;;;;;;;;;;;17.49;100.00;98593.97;5076659;28;19951;-71
2022/10/17 02:34:03;;;;;;;;;;;;;;;17.48;100.00;98589.69;5072409;28;19928;-72
2022/10/17 02:36:32;;;;;;;;;;;;;;;17.48;100.00;98595.91;5073438;28;19924;-71
2022/10/17 02:39:01;;;;;;;;;;;;;;;17.47;100.00;98586.19;5077190;28;19992;-71
2022/10/17 02:41:28;;;;;;;;;;;;;;;17.46;100.00;98592.66;5076507;28;19954;-71
2022/10/17 02:43:54;;;;;;;;;;;;;;;17.44;100.00;98594.88;5073628;28;19924;-71
2022/10/17 02:46:22;;;;;;;;;;;;;;;17.41;100.00;98584.66;5072425;28;19991;-71
2022/10/17 02:48:50;;;;;;;;;;;;;;;17.39;100.00;98589.53;5064440;28;20476;-71
2022/10/17 02:51:21;;;;;;;;;;;;;;;17.36;100.00;98594.72;5073670;28;20298;-70
2022/10/17 02:53:53;;;;;;;;;;;;;;;17.36;100.00;98597.41;5066712;28;19991;-71
2022/10/17 02:56:20;;;;;;;;;;;;;;;17.36;100.00;98598.19;5073652;28;19988;-71
2022/10/17 02:58:48;;;;;;;;;;;;;;;17.36;100.00;98597.41;5077694;28;19924;-71
2022/10/17 03:01:15;;;;;;;;;;;;;;;17.35;100.00;98606.59;5076733;28;19925;-71
2022/10/17 03:03:41;;;;;;;;;;;;;;;17.34;100.00;98599.59;5074462;28;20566;-72
2022/10/17 03:06:08;;;;;;;;;;;;;;;17.35;100.00;98595.78;5073762;28;20058;-71
2022/10/17 03:08:35;;;;;;;;;;;;;;;17.32;100.00;98604.47;5075488;28;19956;-71
2022/10/17 03:11:02;;;;;;;;;;;;;;;17.32;100.00;98607.97;5076385;28;19925;-72
2022/10/17 03:13:28;;;;;;;;;;;;;;;17.31;100.00;98597.47;5090945;28;19954;-72
2022/10/17 03:15:56;;;;;;;;;;;;;;;17.31;100.00;98600.16;5072626;28;19997;-72
2022/10/17 03:18:22;;;;;;;;;;;;;;;17.28;100.00;98609.66;5072196;28;20047;-72
2022/10/17 03:20:49;;;;;;;;;;;;;;;17.27;100.00;98605.34;5076646;28;19970;-72
2022/10/17 03:23:15;;;;;;;;;;;;;;;17.23;100.00;98610.53;5076577;28;19993;-72
2022/10/17 03:25:43;;;;;;;;;;;;;;;17.23;100.00;98615.94;5074334;28;19979;-72
2022/10/17 03:28:11;;;;;;;;;;;;;;;17.21;100.00;98612.69;5074013;28;19925;-72
2022/10/17 03:30:38;;;;;;;;;;;;;;;17.19;100.00;98616.78;5075541;28;19924;-72
2022/10/17 03:33:04;;;;;;;;;;;;;;;17.20;100.00;98619.22;5079430;28;19934;-72
2022/10/17 03:35:30;;;;;;;;;;;;;;;17.20;100.00;98621.91;5078182;28;19935;-72
2022/10/17 03:37:57;;;;;;;;;;;;;;;17.19;100.00;98625.69;5077399;28;20012;-72
2022/10/17 03:40:23;;;;;;;;;;;;;;;17.19;100.00;98622.19;5077594;28;19935;-70
2022/10/17 03:42:51;;;;;;;;;;;;;;;17.08;100.00;98626.88;5080723;28;19991;-71
2022/10/17 03:45:17;;;;;;;;;;;;;;;17.16;100.00;98628.16;5080552;28;20000;-71
2022/10/17 03:47:43;;;;;;;;;;;;;;;17.10;100.00;98619.31;5077487;28;19960;-71
2022/10/17 03:50:10;;;;;;;;;;;;;;;17.14;100.00;98622.25;5076674;28;19996;-72
2022/10/17 03:52:36;;;;;;;;;;;;;;;17.12;100.00;98622.53;5078821;28;20062;-72
2022/10/17 03:55:03;;;;;;;;;;;;;;;17.09;100.00;98623.09;5080112;28;20004;-72
2022/10/17 03:57:29;;;;;;;;;;;;;;;17.11;100.00;98631.69;5079035;28;20024;-71
2022/10/17 03:59:57;;;;;;;;;;;;;;;17.10;100.00;98630.13;5077073;28;19925;-71
2022/10/17 04:02:23;;;;;;;;;;;;;;;17.07;100.00;98638.78;5076638;28;19925;-71
2022/10/17 04:04:49;;;;;;;;;;;;;;;17.08;100.00;98637.69;5080205;28;19931;-71
2022/10/17 04:07:16;;;;;;;;;;;;;;;17.08;100.00;98636.91;5080008;28;19952;-71
2022/10/17 04:09:42;;;;;;;;;;;;;;;16.99;100.00;98636.69;5076964;28;19988;-70
2022/10/17 04:12:08;;;;;;;;;;;;;;;17.00;100.00;98637.50;5076848;28;19925;-71
2022/10/17 04:14:35;;;;;;;;;;;;;;;16.98;100.00;98640.50;5078957;28;19925;-70
2022/10/17 04:17:03;;;;;;;;;;;;;;;16.96;100.00;98641.88;5080666;28;19928;-70
2022/10/17 04:19:29;;;;;;;;;;;;;;;16.90;100.00;98646.50;5078736;28;20435;-71
2022/10/17 04:21:55;;;;;;;;;;;;;;;16.87;100.00;98644.38;5075143;28;19924;-71
2022/10/17 04:24:22;;;;;;;;;;;;;;;16.89;100.00;98652.22;5092266;28;19924;-70
2022/10/17 04:26:49;;;;;;;;;;;;;;;16.90;100.00;98648.41;5079773;28;19924;-70
2022/10/17 04:29:15;;;;;;;;;;;;;;;16.92;100.00;98649.75;5095327;28;19980;-71
2022/10/17 04:31:41;;;;;;;;;;;;;;;16.90;100.00;98662.69;5076783;28;19924;-71
2022/10/17 04:34:09;;;;;;;;;;;;;;;16.90;100.00;98661.88;5076149;28;20015;-71
2022/10/17 04:36:35;;;;;;;;;;;;;;;16.91;100.00;98655.41;5076261;28;19959;-71
2022/10/17 04:39:02;;;;;;;;;;;;;;;16.91;100.00;98653.53;5094593;28;19930;-72
2022/10/17 04:41:28;;;;;;;;;;;;;;;16.90;100.00;98662.69;5078212;28;19947;-72
2022/10/17 04:43:54;;;;;;;;;;;;;;;16.91;100.00;98663.50;5075218;28;19975;-71
2022/10/17 04:46:21;;;;;;;;;;;;;;;16.87;100.00;98659.75;5075578;28;19951;-72
2022/10/17 04:48:47;;;;;;;;;;;;;;;16.84;100.00;98663.03;5067693;28;19924;-72
2022/10/17 04:51:15;;;;;;;;;;;;;;;16.79;100.00;98663.91;5074284;28;19925;-72
2022/10/17 04:53:43;;;;;;;;;;;;;;;16.74;100.00;98667.44;5080866;28;19928;-71
2022/10/17 04:56:10;;;;;;;;;;;;;;;16.71;100.00;98667.22;5073981;28;19971;-72
2022/10/17 04:58:36;;;;;;;;;;;;;;;16.63;100.00;98657.84;5076946;28;19932;-72
2022/10/17 05:01:06;;;;;;;;;;;;;;;16.59;100.00;98664.06;5079884;28;19947;-71
2022/10/17 05:03:33;;;;;;;;;;;;;;;16.58;100.00;98666.00;5077726;28;20005;-72
2022/10/17 05:06:02;;;;;;;;;;;;;;;16.63;100.00;98668.63;5075857;28;19992;-71
2022/10/17 05:08:30;;;;;;;;;;;;;;;16.62;100.00;98669.72;5077246;28;19988;-71
2022/10/17 05:10:56;;;;;;;;;;;;;;;16.69;100.00;98666.69;5079353;28;19954;-71
2022/10/17 05:13:23;;;;;;;;;;;;;;;16.72;100.00;98666.13;5094522;28;19958;-72
2022/10/17 05:15:49;;;;;;;;;;;;;;;16.67;100.00;98661.59;5074448;28;19964;-72
2022/10/17 05:18:16;;;;;;;;;;;;;;;16.67;100.00;98667.00;5076038;28;19925;-71
2022/10/17 05:20:42;;;;;;;;;;;;;;;16.69;100.00;98669.38;5078541;28;19928;-72
2022/10/17 05:23:08;;;;;;;;;;;;;;;16.67;100.00;98674.28;5079340;28;19936;-72
2022/10/17 05:25:36;;;;;;;;;;;;;;;16.65;100.00;98673.72;5077064;28;19925;-72
2022/10/17 05:28:02;;;;;;;;;;;;;;;16.70;100.00;98668.31;5075834;28;19984;-72
2022/10/17 05:30:29;;;;;;;;;;;;;;;16.68;100.00;98683.97;5074496;28;19925;-72
2022/10/17 05:32:55;;;;;;;;;;;;;;;16.69;100.00;98669.38;5093852;28;19992;-72
2022/10/17 05:35:22;;;;;;;;;;;;;;;16.67;100.00;98680.47;5078264;28;20311;-72
2022/10/17 05:37:48;;;;;;;;;;;;;;;16.64;100.00;98680.22;5066527;28;20004;-72
2022/10/17 05:40:14;;;;;;;;;;;;;;;16.60;100.00;98681.88;5074637;28;19925;-72
2022/10/17 05:42:47;;;;;;;;;;;;;;;16.57;100.00;98690.53;5092573;28;19932;-72
2022/10/17 05:45:13;;;;;;;;;;;;;;;16.60;100.00;98698.06;5077834;28;19952;-72
2022/10/17 05:47:40;;;;;;;;;;;;;;;16.56;100.00;98700.50;5074227;28;19925;-72
2022/10/17 05:50:07;;;;;;;;;;;;;;;16.54;100.00;98694.59;5073334;28;19935;-70
2022/10/17 05:52:33;;;;;;;;;;;;;;;16.43;100.00;98703.03;5076182;28;19924;-72
2022/10/17 05:54:59;;;;;;;;;;;;;;;16.50;100.00;98700.78;5077142;28;19947;-72
2022/10/17 05:57:26;;;;;;;;;;;;;;;16.53;100.00;98702.94;5076956;28;19968;-71
2022/10/17 05:59:54;;;;;;;;;;;;;;;16.54;100.00;98712.63;5074147;28;19956;-71
2022/10/17 06:02:20;;;;;;;;;;;;;;;16.54;100.00;98705.38;5072980;28;19936;-72
2022/10/17 06:04:48;;;;;;;;;;;;;;;16.56;100.00;98711.28;5077570;28;19935;-72
2022/10/17 06:07:14;;;;;;;;;;;;;;;16.57;100.00;98709.41;5077618;28;19925;-71
2022/10/17 06:09:40;;;;;;;;;;;;;;;16.58;100.00;98719.13;5075134;28;19992;-72
2022/10/17 06:12:07;;;;;;;;;;;;;;;16.59;100.00;98712.63;5073677;28;20521;-72
2022/10/17 06:14:34;;;;;;;;;;;;;;;16.59;100.00;98712.63;5075591;28;19925;-71
2022/10/17 06:17:01;;;;;;;;;;;;;;;16.57;100.00;98720.19;5077150;28;19935;-72
2022/10/17 06:19:28;;;;;;;;;;;;;;;16.56;100.00;98730.16;5076532;28;19924;-72
2022/10/17 06:21:54;;;;;;;;;;;;;;;16.55;100.00;98727.78;5074070;28;20007;-72
2022/10/17 06:24:20;;;;;;;;;;;;;;;16.53;100.00;98733.41;5073787;28;19928;-71
2022/10/17 06:26:48;;;;;;;;;;;;;;;16.56;100.00;98732.88;5077488;28;19935;-72
2022/10/17 06:29:15;;;;;;;;;;;;;;;16.58;100.00;98735.31;5077443;28;19935;-71
2022/10/17 06:31:41;;;;;;;;;;;;;;;16.63;100.00;98743.34;5074435;28;19924;-72
2022/10/17 06:34:09;;;;;;;;;;;;;;;16.57;100.00;98741.78;5073673;28;19925;-71
2022/10/17 06:36:35;;;;;;;;;;;;;;;16.56;100.00;98740.16;5075479;28;19932;-72
2022/10/17 06:39:01;;;;;;;;;;;;;;;16.58;100.00;98746.09;5077296;28;19924;-72
2022/10/17 06:41:28;;;;;;;;;;;;;;;16.57;100.00;98741.78;5091798;28;19952;-72
2022/10/17 06:43:54;;;;;;;;;;;;;;;16.27;100.00;98747.34;5073517;28;20019;-72
2022/10/17 06:46:20;;;;;;;;;;;;;;;16.29;100.00;98755.94;5073538;28;19924;-73
2022/10/17 06:48:46;;;;;;;;;;;;;;;16.24;100.00;98743.31;5077522;28;19988;-70
2022/10/17 06:51:14;;;;;;;;;;;;;;;16.10;100.00;98753.09;5076835;28;20000;-71
2022/10/17 06:53:41;;;;;;;;;;;;;;;16.23;100.00;98762.47;5074569;28;20007;-71
2022/10/17 06:56:08;;;;;;;;;;;;;;;16.31;100.00;98754.56;5073377;28;19997;-71
2022/10/17 06:58:35;;;;;;;;;;;;;;;16.43;100.00;98759.66;5090615;28;20019;-71
2022/10/17 07:01:03;;;;;;;;;;;;;;;16.42;100.00;98752.63;5077090;28;19951;-71
2022/10/17 07:03:30;;;;;;;;;;;;;;;16.40;100.00;98754.81;5075690;28;19946;-72
2022/10/17 07:05:57;;;;;;;;;;;;;;;16.47;100.00;98764.19;5073345;28;19972;-71
2022/10/17 07:08:25;;;;;;;;;;;;;;;16.51;100.00;98764.44;5073486;28;19963;-71
2022/10/17 07:10:52;;;;;;;;;;;;;;;16.51;100.00;98769.81;5076701;28;19925;-71
2022/10/17 07:13:18;;;;;;;;;;;;;;;16.48;100.00;98768.50;5092964;28;19965;-71
2022/10/17 07:15:45;;;;;;;;;;;;;;;16.41;100.00;98769.88;5074624;28;19925;-71
2022/10/17 07:18:11;;;;;;;;;;;;;;;16.55;100.00;98766.34;5073915;28;19931;-71
2022/10/17 07:20:39;;;;;;;;;;;;;;;16.60;100.00;98762.78;5074861;28;19931;-71
2022/10/17 07:23:05;;;;;;;;;;;;;;;16.60;100.00;98770.88;5077650;28;19935;-72
2022/10/17 07:25:33;;;;;;;;;;;;;;;16.72;100.00;98774.00;5075266;28;19936;-72
2022/10/17 07:28:01;;;;;;;;;;;;;;;16.86;100.00;98780.38;5073242;28;19931;-71
2022/10/17 07:30:27;;;;;;;;;;;;;;;16.67;100.00;98785.66;5074325;28;19924;-72
2022/10/17 07:32:54;;;;;;;;;;;;;;;16.47;100.00;98779.56;5076986;28;19929;-72
2022/10/17 07:35:20;;;;;;;;;;;;;;;16.45;100.00;98782.53;5076915;28;20102;-72
2022/10/17 07:37:47;;;;;;;;;;;;;;;16.59;100.00;98788.94;5071838;28;19956;-72
2022/10/17 07:40:13;;;;;;;;;;;;;;;16.78;100.00;98783.69;5071993;28;19932;-72
2022/10/17 07:42:41;;;;;;;;;;;;;;;16.71;100.00;98784.00;5076312;28;20431;-72
2022/10/17 07:45:08;;;;;;;;;;;;;;;16.76;100.00;98776.97;5076792;28;19962;-72
2022/10/17 07:47:35;;;;;;;;;;;;;;;16.73;100.00;98781.03;5075315;28;19932;-72
2022/10/17 07:50:01;;;;;;;;;;;;;;;16.73;100.00;98789.13;5071739;28;20321;-72
2022/10/17 07:52:28;;;;;;;;;;;;;;;16.76;100.00;98788.56;5073691;28;19996;-72
2022/10/17 07:54:54;;;;;;;;;;;;;;;16.67;100.00;98790.25;5077077;28;19924;-72
2022/10/17 07:57:20;;;;;;;;;;;;;;;16.61;100.00;98786.78;5077037;28;19925;-73
2022/10/17 07:59:50;;;;;;;;;;;;;;;16.59;100.00;98788.13;5074057;28;19984;-72
2022/10/17 08:02:20;;;;;;;;;;;;;;;16.46;100.00;98788.75;5073182;28;19951;-72
2022/10/17 08:04:46;;;;;;;;;;;;;;;16.50;100.00;98792.47;5076315;28;19924;-72
2022/10/17 08:07:14;;;;;;;;;;;;;;;16.59;100.00;98788.13;5076137;28;19974;-72
2022/10/17 08:09:41;;;;;;;;;;;;;;;16.64;100.00;98797.00;5073893;28;19947;-70
2022/10/17 08:12:07;;;;;;;;;;;;;;;16.73;100.00;98791.81;5072714;28;19976;-72
2022/10/17 08:14:34;;;;;;;;;;;;;;;16.83;100.00;98799.84;5073329;28;19948;-71
2022/10/17 08:17:01;;;;;;;;;;;;;;;16.81;100.00;98802.00;5076479;28;19979;-72
2022/10/17 08:19:28;;;;;;;;;;;;;;;16.90;100.00;98802.19;5079301;28;19948;-71
2022/10/17 08:21:54;;;;;;;;;;;;;;;16.80;100.00;98795.00;5076439;28;19925;-71
2022/10/17 08:24:21;;;;;;;;;;;;;;;16.77;100.00;98798.28;5075202;28;19979;-72
2022/10/17 08:26:47;;;;;;;;;;;;;;;16.81;100.00;98801.19;5080150;28;20687;-71
2022/10/17 08:29:14;;;;;;;;;;;;;;;16.63;100.00;98795.41;5080274;28;20295;-71
2022/10/17 08:31:40;;;;;;;;;;;;;;;16.34;100.00;98797.16;5077518;28;19920;-71
2022/10/17 08:34:08;;;;;;;;;;;;;;;16.15;100.00;98806.97;5076161;28;19988;-72
2022/10/17 08:36:35;;;;;;;;;;;;;;;15.99;100.00;98805.44;5078023;28;19984;-71
2022/10/17 08:39:01;;;;;;;;;;;;;;;16.01;100.00;98803.25;5079484;28;19970;-73
2022/10/17 08:41:37;;;;;;;;;;;;;;;16.16;100.00;98790.53;5078708;28;19924;-72
2022/10/17 08:44:11;;;;;;;;;;;;;;;16.33;100.00;98802.84;5075940;28;19929;-71
2022/10/17 08:46:40;;;;;;;;;;;;;;;16.47;100.00;98793.03;5078041;28;19994;-71
2022/10/17 08:49:12;;;;;;;;;;;;;;;16.42;100.00;98793.88;5079486;28;19924;-71
2022/10/17 08:51:44;;;;;;;;;;;;;;;16.30;100.00;98795.31;5077085;28;19984;-71
2022/10/17 08:54:14;;;;;;;;;;;;;;;16.30;100.00;98789.91;5075802;28;20008;-71
2022/10/17 08:56:43;;;;;;;;;;;;;;;16.18;100.00;98793.72;5078478;28;19920;-71
2022/10/17 08:59:11;;;;;;;;;;;;;;;16.27;100.00;98791.28;5079026;28;19996;-71
2022/10/17 09:01:44;;;;;;;;;;;;;;;16.26;100.00;98794.25;5077252;28;19984;-72
2022/10/17 09:04:20;;;;;;;;;;;;;;;16.11;100.00;98804.03;5074319;28;20106;-72
2022/10/17 09:06:50;;;;;;;;;;;;;;;16.12;100.00;98799.44;5078855;28;19931;-72
2022/10/17 09:09:25;;;;;;;;;;;;;;;16.05;100.00;98799.75;5079503;28;19924;-71
2022/10/17 09:11:56;;;;;;;;;;;;;;;16.06;100.00;98793.25;5067483;28;19924;-70
2022/10/17 09:14:48;;;;;;;;;;;;;;;16.07;100.00;98794.06;5075981;28;19935;-71
2022/10/17 09:17:19;;;;;;;;;;;;;;;16.08;100.00;98804.59;5079845;28;19934;-70
2022/10/17 09:19:51;;;;;;;;;;;;;;;16.19;100.00;98798.06;5076354;28;19996;-70
2022/10/17 09:22:20;;;;;;;;;;;;;;;16.28;100.00;98794.78;5074322;28;19929;-70
2022/10/17 09:24:49;;;;;;;;;;;;;;;16.32;100.00;98795.81;5078600;28;19976;-71
2022/10/17 09:27:22;;;;;;;;;;;;;;;16.34;100.00;98802.53;5094396;28;19924;-71
2022/10/17 09:29:50;;;;;;;;;;;;;;;16.43;100.00;98795.47;5066061;28;19960;-71
2022/10/17 09:32:18;;;;;;;;;;;;;;;16.47;100.00;98801.13;5075337;28;19992;-71
2022/10/17 09:34:45;;;;;;;;;;;;;;;16.62;100.00;98798.34;5076824;28;19928;-72
2022/10/17 09:37:13;;;;;;;;;;;;;;;16.67;100.00;98792.94;5078992;28;19924;-70
2022/10/17 09:39:40;;;;;;;;;;;;;;;16.70;100.00;98798.59;5076482;28;19924;-70
2022/10/17 09:42:10;;;;;;;;;;;;;;;16.71;100.00;98802.09;5075399;28;20050;-70
2022/10/17 09:44:40;;;;;;;;;;;;;;;16.66;100.00;98799.41;5077263;28;19955;-71
2022/10/17 09:47:15;;;;;;;;;;;;;;;16.80;100.00;98799.59;5078758;28;19956;-70
2022/10/17 09:49:42;;;;;;;;;;;;;;;16.77;100.00;98795.56;5076122;28;19935;-71
2022/10/17 09:52:12;;;;;;;;;;;;;;;16.88;100.00;98805.19;5074651;28;19928;-71
2022/10/17 09:54:42;;;;;;;;;;;;;;;16.92;100.00;98805.44;5076516;28;19924;-70
2022/10/17 09:57:09;;;;;;;;;;;;;;;17.03;100.00;98806.94;5077910;28;19968;-71
2022/10/17 09:59:36;;;;;;;;;;;;;;;16.79;100.00;98801.47;5076251;28;19928;-71
2022/10/17 10:02:14;;;;;;;;;;;;;;;16.97;100.00;98799.97;5073126;28;19932;-70
2022/10/17 10:04:51;;;;;;;;;;;;;;;16.86;100.00;98810.06;5076865;28;19956;-71
2022/10/17 10:07:19;;;;;;;;;;;;;;;17.01;100.00;98812.66;5077903;28;19924;-70
2022/10/17 10:09:47;;;;;;;;;;;;;;;17.16;100.00;98811.69;5074899;28;19954;-71
2022/10/17 10:12:17;;;;;;;;;;;;;;;17.32;100.00;98809.66;5073927;28;19925;-72
2022/10/17 10:14:45;;;;;;;;;;;;;;;17.31;100.00;98816.97;5077128;28;19963;-70
2022/10/17 10:17:26;;;;;;;;;;;;;;;17.35;100.00;98818.00;5078170;28;19987;-71
2022/10/17 10:19:52;;;;;;;;;;;;;;;17.43;100.00;98817.38;5066797;28;19956;-71
2022/10/17 10:22:20;;;;;;;;;;;;;;;17.44;100.00;98810.91;5074237;28;19995;-71
2022/10/17 10:25:06;;;;;;;;;;;;;;;17.55;100.00;98807.03;5077467;28;19930;-71
2022/10/17 10:27:32;;;;;;;;;;;;;;;17.53;100.00;98802.97;5076612;28;19924;-71
2022/10/17 10:29:59;;;;;;;;;;;;;;;17.79;100.00;98810.53;5090099;28;19992;-70
2022/10/17 10:32:26;;;;;;;;;;;;;;;17.86;100.00;98806.72;5074916;28;19976;-72
2022/10/17 10:34:54;;;;;;;;;;;;;;;17.84;100.00;98801.56;5077690;28;19924;-71
2022/10/17 10:37:22;;;;;;;;;;;;;;;17.89;100.00;98798.81;5077636;28;19959;-71
2022/10/17 10:39:51;;;;;;;;;;;;;;;18.04;100.00;98798.59;5065624;28;20406;-71
2022/10/17 10:42:22;;;;;;;;;;;;;;;18.04;100.00;98793.19;5073797;28;19925;-71
2022/10/17 10:44:49;;;;;;;;;;;;;;;18.03;100.00;98780.81;5065747;28;20281;-71
2022/10/17 10:47:18;;;;;;;;;;;;;;;18.15;100.00;98786.59;5073849;28;19968;-72
2022/10/17 10:49:44;;;;;;;;;;;;;;;18.16;100.00;98785.50;5076372;28;19934;-72
2022/10/17 10:52:14;;;;;;;;;;;;;;;18.26;100.00;98781.84;5075902;28;19932;-71
2022/10/17 10:54:43;;;;;;;;;;;;;;;18.41;100.00;98775.44;5076209;28;19925;-71
2022/10/17 10:57:18;;;;;;;;;;;;;;;18.55;100.00;98779.03;5092815;28;20132;-71
2022/10/17 10:59:51;;;;;;;;;;;;;;;18.41;100.00;98781.66;5074086;28;19925;-70
2022/10/17 11:02:21;;;;;;;;;;;;;;;18.47;100.00;98780.47;5073508;28;19932;-71
2022/10/17 11:04:51;;;;;;;;;;;;;;;18.67;100.00;98774.78;5075339;28;20009;-70
2022/10/17 11:07:21;;;;;;;;;;;;;;;18.64;100.00;98780.78;5076945;28;20190;-73
2022/10/17 11:09:50;;;;;;;;;;;;;;;18.61;100.00;98777.84;5074583;28;19925;-70
2022/10/17 11:12:20;;;;;;;;;;;;;;;18.70;100.00;98782.31;5075329;28;19924;-70
2022/10/17 11:14:49;;;;;;;;;;;;;;;18.77;100.00;98780.03;5078345;28;19975;-70
2022/10/17 11:17:22;;;;;;;;;;;;;;;18.86;100.00;98777.44;5077394;28;19975;-70
2022/10/17 11:19:55;;;;;;;;;;;;;;;18.88;100.00;98779.88;5065157;28;19984;-70
2022/10/17 11:22:26;;;;;;;;;;;;;;;18.84;100.00;98777.75;5073517;28;19926;-70
2022/10/17 11:24:58;;;;;;;;;;;;;;;18.91;100.00;98774.66;5066477;28;19925;-70
2022/10/17 11:27:27;;;;;;;;;;;;;;;19.20;100.00;98769.81;5074720;28;19933;-71
2022/10/17 11:29:54;;;;;;;;;;;;;;;19.23;100.00;98776.56;5079024;28;19960;-70
2022/10/17 11:32:23;;;;;;;;;;;;;;;19.36;100.00;98771.16;5078478;28;19971;-71
2022/10/17 11:34:51;;;;;;;;;;;;;;;19.19;100.00;98770.91;5068488;28;19943;-78
2022/10/17 11:37:21;;;;;;;;;;;;;;;19.29;100.00;98770.75;5074909;28;20318;-71
2022/10/17 11:39:51;;;;;;;;;;;;;;;19.44;100.00;98766.16;5076845;28;19959;-70
2022/10/17 11:42:21;;;;;;;;;;;;;;;19.32;100.00;98758.50;5076778;28;19959;-70
2022/10/17 11:44:50;;;;;;;;;;;;;;;19.33;100.00;98760.13;5073575;28;19924;-71
2022/10/17 11:47:23;;;;;;;;;;;;;;;19.39;100.00;98761.63;5072621;28;19924;-71
2022/10/17 11:49:51;;;;;;;;;;;;;;;19.50;100.00;98764.97;5065061;28;19956;-71
2022/10/17 11:52:27;;;;;;;;;;;;;;;19.38;100.00;98768.16;5074273;28;19987;-71
2022/10/17 11:54:54;;;;;;;;;;;;;;;19.34;100.00;98762.53;5070107;28;19936;-70
2022/10/17 11:57:34;;;;;;;;;;;;;;;19.45;100.00;98762.38;5077341;28;20439;-70
2022/10/17 12:00:12;;;;;;;;;;;;;;;19.43;100.00;98756.47;5070616;28;19932;-71
2022/10/17 12:02:49;;;;;;;;;;;;;;;19.48;100.00;98759.06;5079132;28;19951;-71
2022/10/17 12:05:20;;;;;;;;;;;;;;;19.45;100.00;98756.94;5081052;28;19924;-71
2022/10/17 12:07:49;;;;;;;;;;;;;;;19.56;100.00;98747.53;5075680;28;19935;-70
2022/10/17 12:10:24;;;;;;;;;;;;;;;19.59;100.00;98747.72;5077331;28;20611;-70
2022/10/17 12:12:51;;;;;;;;;;;;;;;19.63;100.00;98734.38;5069502;28;20026;-71
2022/10/17 12:15:31;;;;;;;;;;;;;;;19.62;100.00;98736.28;5077687;28;19970;-71
2022/10/17 12:18:00;;;;;;;;;;;;;;;19.77;100.00;98735.19;5069629;28;19967;-72
2022/10/17 12:20:30;;;;;;;;;;;;;;;19.87;100.00;98738.47;5076916;28;19987;-71
2022/10/17 12:23:04;;;;;;;;;;;;;;;19.76;100.00;98730.84;5079951;28;20371;-69
2022/10/17 12:25:33;;;;;;;;;;;;;;;19.92;100.00;98729.44;5078870;28;19924;-70
2022/10/17 12:28:17;;;;;;;;;;;;;;;19.86;100.00;98728.75;5076458;28;20015;-70
2022/10/17 12:30:53;;;;;;;;;;;;;;;19.87;100.00;98722.22;5078979;28;19956;-70
2022/10/17 12:33:21;;;;;;;;;;;;;;;19.89;100.00;98721.91;5078260;28;19936;-71
2022/10/17 12:35:49;;;;;;;;;;;;;;;19.92;100.00;98716.69;5076706;28;19935;-70
2022/10/17 12:38:19;;;;;;;;;;;;;;;19.99;100.00;98723.63;5076921;28;19935;-70
2022/10/17 12:40:50;;;;;;;;;;;;;;;20.03;100.00;98725.41;5078510;28;20077;-72
2022/10/17 12:43:34;;;;;;;;;;;;;;;20.00;100.00;98719.78;5079636;28;19967;-71